Norway House Airport
CYNE : now visible

Airfield :











YOU CAN JOIN US ON...

 
LOGIN :

Register | Disclaimer

   EN    FR    IT 

 









Legend :    VFR   Marginal VFR   IFR   Intensive IFR   Very Intensive IFR
Visi :
Ceiling :
>= 8 km
>= 3000ft
5 to 8 km
1000 to 3000 ft
1500m to 5 km
500 to 1000 ft
800 to 1500m
200 to 500 ft
< 800m
< 200 ft
Symbols :   Thunderstorms  Fog  Heavy snow  Heavy precipitations  Wind > 20 kt







- Airport Elevation : 734 ft
- IATA code : YNE


CYNE - Norway House

CURRENT METAR :
  • 162200Z AUTO 17006KT 9SM CLR 30/13 A2979 RMK SLP094 DENSITY ALT 2700FT

EXPIRED METARs :
  • 162100Z AUTO 16004KT 110V210 9SM CLR 29/12 A2981 RMK SLP098 DENSITY ALT 2600FT
  • 162000Z AUTO 19006KT 120V220 9SM CLR 29/12 A2982 RMK SLP101 DENSITY ALT 2600FT

TAF TAF CYNE
Valid from the 16 at 19:00 until the 17 at 07:00 UTC


161838Z 1619/1707 13008KT P6SM FEW250 RMK FCST BASED ON AUTO OBS. NXT FCST BY 170100Z
No reported NOTAMs for that airfield.



MET'MAP, your aeronautical weather chart ! - Copyright ORBIFLY December 2007 - Disclaimer

ORBIFLY MET'MAP TEAM :

Programming & Development : Alexandra Zaïnal
Concept & Development : Baudouin d'Aumeries
Co-Development & Prog : Marc-Olivier Méhu
Technical & hardware support : Manuel Goepfert

Contact : metmap@orbifly.com




SOURCES & CREDITS :

   NOAA       Earth
Advisory